sensor_id;sensor_type;location;lat;lon;timestamp;P1;durP1;ratioP1;P2;durP2;ratioP2
21430;SDS011;10876;49.038;10.608;2023-04-03T00:01:20;4.57;;;2.20;;
21430;SDS011;10876;49.038;10.608;2023-04-03T00:03:47;3.75;;;2.38;;
21430;SDS011;10876;49.038;10.608;2023-04-03T00:06:22;3.00;;;2.05;;
21430;SDS011;10876;49.038;10.608;2023-04-03T00:08:50;3.55;;;2.30;;
21430;SDS011;10876;49.038;10.608;2023-04-03T00:11:19;2.55;;;2.20;;
21430;SDS011;10876;49.038;10.608;2023-04-03T00:13:46;3.45;;;2.47;;
21430;SDS011;10876;49.038;10.608;2023-04-03T00:16:15;3.20;;;1.83;;
21430;SDS011;10876;49.038;10.608;2023-04-03T00:18:42;6.55;;;2.15;;
21430;SDS011;10876;49.038;10.608;2023-04-03T00:21:10;3.22;;;2.25;;
21430;SDS011;10876;49.038;10.608;2023-04-03T00:23:41;3.38;;;2.08;;
21430;SDS011;10876;49.038;10.608;2023-04-03T00:26:08;3.72;;;2.38;;
21430;SDS011;10876;49.038;10.608;2023-04-03T00:28:36;5.22;;;2.28;;
21430;SDS011;10876;49.038;10.608;2023-04-03T00:31:03;4.03;;;2.00;;
21430;SDS011;10876;49.038;10.608;2023-04-03T00:33:31;2.80;;;2.25;;
21430;SDS011;10876;49.038;10.608;2023-04-03T00:36:01;2.60;;;2.20;;
21430;SDS011;10876;49.038;10.608;2023-04-03T00:38:32;4.32;;;2.03;;
21430;SDS011;10876;49.038;10.608;2023-04-03T00:41:00;3.40;;;2.10;;
21430;SDS011;10876;49.038;10.608;2023-04-03T00:43:29;2.90;;;1.90;;
21430;SDS011;10876;49.038;10.608;2023-04-03T00:45:59;3.58;;;2.25;;
21430;SDS011;10876;49.038;10.608;2023-04-03T00:48:28;4.03;;;2.58;;
21430;SDS011;10876;49.038;10.608;2023-04-03T00:50:58;3.70;;;2.25;;
21430;SDS011;10876;49.038;10.608;2023-04-03T00:53:26;2.75;;;2.33;;
21430;SDS011;10876;49.038;10.608;2023-04-03T00:55:56;5.15;;;2.47;;
21430;SDS011;10876;49.038;10.608;2023-04-03T00:58:26;3.30;;;2.40;;
21430;SDS011;10876;49.038;10.608;2023-04-03T01:01:00;2.78;;;2.10;;
21430;SDS011;10876;49.038;10.608;2023-04-03T01:03:31;4.93;;;2.42;;
21430;SDS011;10876;49.038;10.608;2023-04-03T01:06:02;3.03;;;2.30;;
21430;SDS011;10876;49.038;10.608;2023-04-03T01:08:33;2.80;;;2.50;;
21430;SDS011;10876;49.038;10.608;2023-04-03T01:11:02;4.20;;;2.67;;
21430;SDS011;10876;49.038;10.608;2023-04-03T01:13:29;2.67;;;2.25;;
21430;SDS011;10876;49.038;10.608;2023-04-03T01:16:01;3.70;;;2.38;;
21430;SDS011;10876;49.038;10.608;2023-04-03T01:18:29;2.35;;;1.85;;
21430;SDS011;10876;49.038;10.608;2023-04-03T01:23:54;3.30;;;2.00;;
21430;SDS011;10876;49.038;10.608;2023-04-03T01:26:29;3.05;;;2.20;;
21430;SDS011;10876;49.038;10.608;2023-04-03T01:28:58;3.63;;;2.47;;
21430;SDS011;10876;49.038;10.608;2023-04-03T01:31:28;3.13;;;2.33;;
21430;SDS011;10876;49.038;10.608;2023-04-03T01:34:01;3.72;;;2.33;;
21430;SDS011;10876;49.038;10.608;2023-04-03T01:36:29;3.67;;;2.60;;
21430;SDS011;10876;49.038;10.608;2023-04-03T01:38:57;4.88;;;2.50;;
21430;SDS011;10876;49.038;10.608;2023-04-03T01:41:25;2.33;;;2.10;;
21430;SDS011;10876;49.038;10.608;2023-04-03T01:43:53;5.05;;;2.65;;
21430;SDS011;10876;49.038;10.608;2023-04-03T01:46:20;2.75;;;2.38;;
21430;SDS011;10876;49.038;10.608;2023-04-03T01:48:48;2.97;;;2.08;;
21430;SDS011;10876;49.038;10.608;2023-04-03T01:51:18;2.90;;;2.35;;
21430;SDS011;10876;49.038;10.608;2023-04-03T01:53:45;2.38;;;1.98;;
21430;SDS011;10876;49.038;10.608;2023-04-03T01:56:12;3.95;;;2.22;;
21430;SDS011;10876;49.038;10.608;2023-04-03T01:58:39;2.55;;;1.98;;
21430;SDS011;10876;49.038;10.608;2023-04-03T02:01:06;3.72;;;2.72;;
21430;SDS011;10876;49.038;10.608;2023-04-03T02:03:33;2.45;;;2.00;;
21430;SDS011;10876;49.038;10.608;2023-04-03T02:06:00;2.75;;;1.88;;
21430;SDS011;10876;49.038;10.608;2023-04-03T02:08:29;3.45;;;2.17;;
21430;SDS011;10876;49.038;10.608;2023-04-03T02:10:56;2.60;;;2.10;;
21430;SDS011;10876;49.038;10.608;2023-04-03T02:13:23;3.47;;;2.22;;
21430;SDS011;10876;49.038;10.608;2023-04-03T02:15:50;2.15;;;1.95;;
21430;SDS011;10876;49.038;10.608;2023-04-03T02:18:18;4.40;;;2.50;;
21430;SDS011;10876;49.038;10.608;2023-04-03T02:20:48;2.30;;;2.03;;
21430;SDS011;10876;49.038;10.608;2023-04-03T02:23:16;3.55;;;2.45;;
21430;SDS011;10876;49.038;10.608;2023-04-03T02:25:44;3.53;;;2.10;;
21430;SDS011;10876;49.038;10.608;2023-04-03T02:28:11;2.72;;;2.17;;
21430;SDS011;10876;49.038;10.608;2023-04-03T02:30:38;4.72;;;2.20;;
21430;SDS011;10876;49.038;10.608;2023-04-03T02:33:05;2.03;;;1.83;;
21430;SDS011;10876;49.038;10.608;2023-04-03T02:35:32;4.72;;;2.60;;
21430;SDS011;10876;49.038;10.608;2023-04-03T02:37:59;3.15;;;2.08;;
21430;SDS011;10876;49.038;10.608;2023-04-03T02:40:26;2.45;;;2.17;;
21430;SDS011;10876;49.038;10.608;2023-04-03T02:42:55;4.15;;;2.47;;
21430;SDS011;10876;49.038;10.608;2023-04-03T02:45:22;4.03;;;2.33;;
21430;SDS011;10876;49.038;10.608;2023-04-03T02:47:49;2.28;;;2.00;;
21430;SDS011;10876;49.038;10.608;2023-04-03T02:50:16;3.17;;;2.28;;
21430;SDS011;10876;49.038;10.608;2023-04-03T02:52:43;3.95;;;2.22;;
21430;SDS011;10876;49.038;10.608;2023-04-03T02:55:12;3.50;;;2.42;;
21430;SDS011;10876;49.038;10.608;2023-04-03T02:57:41;2.90;;;2.20;;
21430;SDS011;10876;49.038;10.608;2023-04-03T03:00:10;4.10;;;2.40;;
21430;SDS011;10876;49.038;10.608;2023-04-03T03:02:38;3.60;;;2.30;;
21430;SDS011;10876;49.038;10.608;2023-04-03T03:05:05;2.78;;;2.17;;
21430;SDS011;10876;49.038;10.608;2023-04-03T03:07:32;3.47;;;2.30;;
21430;SDS011;10876;49.038;10.608;2023-04-03T03:09:59;2.90;;;2.10;;
21430;SDS011;10876;49.038;10.608;2023-04-03T03:12:26;3.45;;;2.25;;
21430;SDS011;10876;49.038;10.608;2023-04-03T03:14:53;2.20;;;2.00;;
21430;SDS011;10876;49.038;10.608;2023-04-03T03:17:22;4.22;;;2.58;;
21430;SDS011;10876;49.038;10.608;2023-04-03T03:19:49;4.43;;;2.25;;
21430;SDS011;10876;49.038;10.608;2023-04-03T03:22:16;4.25;;;2.33;;
21430;SDS011;10876;49.038;10.608;2023-04-03T03:24:43;3.08;;;2.00;;
21430;SDS011;10876;49.038;10.608;2023-04-03T03:27:10;3.80;;;2.30;;
21430;SDS011;10876;49.038;10.608;2023-04-03T03:29:38;7.20;;;2.30;;
21430;SDS011;10876;49.038;10.608;2023-04-03T03:32:05;4.75;;;2.10;;
21430;SDS011;10876;49.038;10.608;2023-04-03T03:34:33;2.90;;;2.50;;
21430;SDS011;10876;49.038;10.608;2023-04-03T03:37:00;3.28;;;2.00;;
21430;SDS011;10876;49.038;10.608;2023-04-03T03:39:27;3.53;;;2.50;;
21430;SDS011;10876;49.038;10.608;2023-04-03T03:41:55;3.47;;;2.42;;
21430;SDS011;10876;49.038;10.608;2023-04-03T03:44:22;2.10;;;1.67;;
21430;SDS011;10876;49.038;10.608;2023-04-03T03:46:49;3.22;;;2.25;;
21430;SDS011;10876;49.038;10.608;2023-04-03T03:49:16;2.60;;;2.05;;
21430;SDS011;10876;49.038;10.608;2023-04-03T03:51:44;2.55;;;2.00;;
21430;SDS011;10876;49.038;10.608;2023-04-03T03:54:12;3.75;;;2.03;;
21430;SDS011;10876;49.038;10.608;2023-04-03T03:56:39;3.25;;;2.15;;
21430;SDS011;10876;49.038;10.608;2023-04-03T03:59:06;4.68;;;2.22;;
21430;SDS011;10876;49.038;10.608;2023-04-03T04:01:33;3.25;;;2.25;;
21430;SDS011;10876;49.038;10.608;2023-04-03T04:04:00;3.28;;;2.28;;
21430;SDS011;10876;49.038;10.608;2023-04-03T04:06:27;4.15;;;2.30;;
21430;SDS011;10876;49.038;10.608;2023-04-03T04:08:55;2.70;;;1.90;;
21430;SDS011;10876;49.038;10.608;2023-04-03T04:11:22;2.60;;;2.10;;
21430;SDS011;10876;49.038;10.608;2023-04-03T04:13:50;3.05;;;2.00;;
21430;SDS011;10876;49.038;10.608;2023-04-03T04:16:17;3.15;;;2.17;;
21430;SDS011;10876;49.038;10.608;2023-04-03T04:18:43;3.25;;;2.10;;
21430;SDS011;10876;49.038;10.608;2023-04-03T04:21:10;2.58;;;1.88;;
21430;SDS011;10876;49.038;10.608;2023-04-03T04:23:37;2.70;;;2.22;;
21430;SDS011;10876;49.038;10.608;2023-04-03T04:26:06;3.70;;;2.25;;
21430;SDS011;10876;49.038;10.608;2023-04-03T04:28:33;3.50;;;2.30;;
21430;SDS011;10876;49.038;10.608;2023-04-03T04:31:00;3.60;;;2.10;;
21430;SDS011;10876;49.038;10.608;2023-04-03T04:33:27;2.58;;;1.83;;
21430;SDS011;10876;49.038;10.608;2023-04-03T04:35:54;2.60;;;1.73;;
21430;SDS011;10876;49.038;10.608;2023-04-03T04:38:21;2.97;;;1.90;;
21430;SDS011;10876;49.038;10.608;2023-04-03T04:40:48;2.60;;;2.13;;
21430;SDS011;10876;49.038;10.608;2023-04-03T04:43:16;3.45;;;1.90;;
21430;SDS011;10876;49.038;10.608;2023-04-03T04:45:43;2.92;;;2.13;;
21430;SDS011;10876;49.038;10.608;2023-04-03T04:48:10;3.17;;;2.15;;
21430;SDS011;10876;49.038;10.608;2023-04-03T04:50:37;3.53;;;2.30;;
21430;SDS011;10876;49.038;10.608;2023-04-03T04:53:04;4.00;;;2.15;;
21430;SDS011;10876;49.038;10.608;2023-04-03T04:55:31;2.28;;;2.00;;
21430;SDS011;10876;49.038;10.608;2023-04-03T04:57:58;3.85;;;1.95;;
21430;SDS011;10876;49.038;10.608;2023-04-03T05:00:27;3.38;;;2.22;;
21430;SDS011;10876;49.038;10.608;2023-04-03T05:02:54;4.10;;;2.35;;
21430;SDS011;10876;49.038;10.608;2023-04-03T05:05:21;3.35;;;2.33;;
21430;SDS011;10876;49.038;10.608;2023-04-03T05:07:48;3.97;;;2.50;;
21430;SDS011;10876;49.038;10.608;2023-04-03T05:10:15;3.90;;;2.15;;
21430;SDS011;10876;49.038;10.608;2023-04-03T05:12:42;2.60;;;2.10;;
21430;SDS011;10876;49.038;10.608;2023-04-03T05:15:09;3.92;;;2.35;;
21430;SDS011;10876;49.038;10.608;2023-04-03T05:17:38;4.18;;;2.40;;
21430;SDS011;10876;49.038;10.608;2023-04-03T05:20:05;2.83;;;2.10;;
21430;SDS011;10876;49.038;10.608;2023-04-03T05:22:33;3.78;;;2.30;;
21430;SDS011;10876;49.038;10.608;2023-04-03T05:25:00;4.95;;;2.33;;
21430;SDS011;10876;49.038;10.608;2023-04-03T05:27:27;6.07;;;2.30;;
21430;SDS011;10876;49.038;10.608;2023-04-03T05:29:55;3.05;;;2.08;;
21430;SDS011;10876;49.038;10.608;2023-04-03T05:32:23;2.67;;;2.00;;
21430;SDS011;10876;49.038;10.608;2023-04-03T05:34:54;3.78;;;2.15;;
21430;SDS011;10876;49.038;10.608;2023-04-03T05:37:21;3.72;;;2.28;;
21430;SDS011;10876;49.038;10.608;2023-04-03T05:39:48;7.55;;;2.78;;
21430;SDS011;10876;49.038;10.608;2023-04-03T05:42:15;3.08;;;2.00;;
21430;SDS011;10876;49.038;10.608;2023-04-03T05:44:42;2.70;;;2.20;;
21430;SDS011;10876;49.038;10.608;2023-04-03T05:47:11;3.67;;;2.28;;
21430;SDS011;10876;49.038;10.608;2023-04-03T05:49:38;2.58;;;2.03;;
21430;SDS011;10876;49.038;10.608;2023-04-03T05:52:08;5.22;;;2.42;;
21430;SDS011;10876;49.038;10.608;2023-04-03T05:54:44;3.38;;;2.50;;
21430;SDS011;10876;49.038;10.608;2023-04-03T05:57:13;2.80;;;2.20;;
21430;SDS011;10876;49.038;10.608;2023-04-03T05:59:41;3.40;;;2.22;;
21430;SDS011;10876;49.038;10.608;2023-04-03T06:02:09;5.03;;;2.60;;
21430;SDS011;10876;49.038;10.608;2023-04-03T06:04:37;4.28;;;2.33;;
21430;SDS011;10876;49.038;10.608;2023-04-03T06:07:04;4.18;;;3.03;;
21430;SDS011;10876;49.038;10.608;2023-04-03T06:09:34;3.22;;;2.17;;
21430;SDS011;10876;49.038;10.608;2023-04-03T06:12:01;5.50;;;2.80;;
21430;SDS011;10876;49.038;10.608;2023-04-03T06:14:28;5.00;;;2.60;;
21430;SDS011;10876;49.038;10.608;2023-04-03T06:16:56;3.17;;;2.35;;
21430;SDS011;10876;49.038;10.608;2023-04-03T06:19:23;3.88;;;2.55;;
21430;SDS011;10876;49.038;10.608;2023-04-03T06:21:50;4.30;;;2.55;;
21430;SDS011;10876;49.038;10.608;2023-04-03T06:24:17;7.05;;;2.88;;
21430;SDS011;10876;49.038;10.608;2023-04-03T06:26:46;4.93;;;2.45;;
21430;SDS011;10876;49.038;10.608;2023-04-03T06:29:14;4.55;;;3.00;;
21430;SDS011;10876;49.038;10.608;2023-04-03T06:31:41;4.78;;;2.67;;
21430;SDS011;10876;49.038;10.608;2023-04-03T06:34:08;4.80;;;2.92;;
21430;SDS011;10876;49.038;10.608;2023-04-03T06:36:38;4.80;;;2.97;;
21430;SDS011;10876;49.038;10.608;2023-04-03T06:39:08;3.47;;;2.88;;
21430;SDS011;10876;49.038;10.608;2023-04-03T06:41:35;3.90;;;2.72;;
21430;SDS011;10876;49.038;10.608;2023-04-03T06:44:04;5.50;;;2.95;;
21430;SDS011;10876;49.038;10.608;2023-04-03T06:46:34;4.47;;;2.78;;
21430;SDS011;10876;49.038;10.608;2023-04-03T06:49:03;6.65;;;2.88;;
21430;SDS011;10876;49.038;10.608;2023-04-03T06:51:33;3.40;;;2.60;;
21430;SDS011;10876;49.038;10.608;2023-04-03T06:54:02;4.90;;;2.70;;
21430;SDS011;10876;49.038;10.608;2023-04-03T06:56:31;5.03;;;2.83;;
21430;SDS011;10876;49.038;10.608;2023-04-03T06:58:58;5.32;;;3.05;;
21430;SDS011;10876;49.038;10.608;2023-04-03T07:05:11;4.32;;;2.90;;
21430;SDS011;10876;49.038;10.608;2023-04-03T07:07:38;4.28;;;2.90;;
21430;SDS011;10876;49.038;10.608;2023-04-03T07:10:07;4.72;;;2.90;;
21430;SDS011;10876;49.038;10.608;2023-04-03T07:12:36;7.10;;;3.17;;
21430;SDS011;10876;49.038;10.608;2023-04-03T07:15:05;5.75;;;2.95;;
21430;SDS011;10876;49.038;10.608;2023-04-03T07:17:34;3.85;;;2.78;;
21430;SDS011;10876;49.038;10.608;2023-04-03T07:20:03;4.28;;;2.55;;
21430;SDS011;10876;49.038;10.608;2023-04-03T07:22:32;5.45;;;2.58;;
21430;SDS011;10876;49.038;10.608;2023-04-03T07:25:00;7.85;;;2.75;;
21430;SDS011;10876;49.038;10.608;2023-04-03T07:27:28;4.80;;;2.70;;
21430;SDS011;10876;49.038;10.608;2023-04-03T07:29:57;5.43;;;3.20;;
21430;SDS011;10876;49.038;10.608;2023-04-03T07:32:25;5.43;;;2.90;;
21430;SDS011;10876;49.038;10.608;2023-04-03T07:34:52;4.35;;;2.28;;
21430;SDS011;10876;49.038;10.608;2023-04-03T07:37:21;4.88;;;2.95;;
21430;SDS011;10876;49.038;10.608;2023-04-03T07:39:50;4.13;;;2.90;;
21430;SDS011;10876;49.038;10.608;2023-04-03T07:42:17;6.90;;;2.75;;
21430;SDS011;10876;49.038;10.608;2023-04-03T07:44:44;9.45;;;2.60;;
21430;SDS011;10876;49.038;10.608;2023-04-03T07:47:11;4.95;;;2.85;;
21430;SDS011;10876;49.038;10.608;2023-04-03T07:49:41;3.75;;;2.75;;
21430;SDS011;10876;49.038;10.608;2023-04-03T07:55:29;4.85;;;3.22;;
21430;SDS011;10876;49.038;10.608;2023-04-03T07:57:58;4.00;;;2.90;;
21430;SDS011;10876;49.038;10.608;2023-04-03T08:00:25;4.18;;;2.90;;
21430;SDS011;10876;49.038;10.608;2023-04-03T08:02:52;5.68;;;2.90;;
21430;SDS011;10876;49.038;10.608;2023-04-03T08:05:19;4.00;;;3.17;;
21430;SDS011;10876;49.038;10.608;2023-04-03T08:07:47;6.07;;;3.00;;
21430;SDS011;10876;49.038;10.608;2023-04-03T08:10:14;4.25;;;2.90;;
21430;SDS011;10876;49.038;10.608;2023-04-03T08:12:45;3.75;;;2.58;;
21430;SDS011;10876;49.038;10.608;2023-04-03T08:15:19;4.70;;;2.60;;
21430;SDS011;10876;49.038;10.608;2023-04-03T08:17:46;3.92;;;2.60;;
21430;SDS011;10876;49.038;10.608;2023-04-03T08:20:14;4.70;;;2.63;;
21430;SDS011;10876;49.038;10.608;2023-04-03T08:29:59;3.33;;;2.25;;
21430;SDS011;10876;49.038;10.608;2023-04-03T08:32:26;5.90;;;2.92;;
21430;SDS011;10876;49.038;10.608;2023-04-03T08:34:54;5.03;;;2.65;;
21430;SDS011;10876;49.038;10.608;2023-04-03T08:37:23;3.35;;;2.83;;
21430;SDS011;10876;49.038;10.608;2023-04-03T08:39:50;4.32;;;2.78;;
21430;SDS011;10876;49.038;10.608;2023-04-03T08:42:19;4.20;;;3.15;;
21430;SDS011;10876;49.038;10.608;2023-04-03T08:45:05;5.22;;;2.92;;
21430;SDS011;10876;49.038;10.608;2023-04-03T08:47:38;3.85;;;2.63;;
21430;SDS011;10876;49.038;10.608;2023-04-03T08:50:11;4.38;;;2.45;;
21430;SDS011;10876;49.038;10.608;2023-04-03T08:52:44;3.33;;;2.50;;
21430;SDS011;10876;49.038;10.608;2023-04-03T08:55:17;4.45;;;2.38;;
21430;SDS011;10876;49.038;10.608;2023-04-03T08:57:50;6.53;;;2.58;;
21430;SDS011;10876;49.038;10.608;2023-04-03T09:00:26;5.22;;;2.50;;
21430;SDS011;10876;49.038;10.608;2023-04-03T09:02:57;3.92;;;2.67;;
21430;SDS011;10876;49.038;10.608;2023-04-03T09:05:29;5.22;;;2.70;;
21430;SDS011;10876;49.038;10.608;2023-04-03T09:08:04;2.65;;;2.33;;
21430;SDS011;10876;49.038;10.608;2023-04-03T09:10:39;3.80;;;2.20;;
21430;SDS011;10876;49.038;10.608;2023-04-03T09:13:09;4.18;;;2.08;;
21430;SDS011;10876;49.038;10.608;2023-04-03T09:15:41;3.10;;;2.60;;
21430;SDS011;10876;49.038;10.608;2023-04-03T09:18:12;5.55;;;2.45;;
21430;SDS011;10876;49.038;10.608;2023-04-03T09:20:44;3.97;;;2.22;;
21430;SDS011;10876;49.038;10.608;2023-04-03T09:23:19;6.65;;;2.53;;
21430;SDS011;10876;49.038;10.608;2023-04-03T09:25:52;8.13;;;2.40;;
21430;SDS011;10876;49.038;10.608;2023-04-03T09:28:23;4.40;;;2.50;;
21430;SDS011;10876;49.038;10.608;2023-04-03T09:30:52;6.90;;;2.53;;
21430;SDS011;10876;49.038;10.608;2023-04-03T09:33:19;3.40;;;2.40;;
21430;SDS011;10876;49.038;10.608;2023-04-03T09:35:47;3.33;;;2.10;;
21430;SDS011;10876;49.038;10.608;2023-04-03T09:38:18;3.15;;;2.03;;
21430;SDS011;10876;49.038;10.608;2023-04-03T09:40:47;2.38;;;2.00;;
21430;SDS011;10876;49.038;10.608;2023-04-03T09:43:21;4.70;;;2.72;;
21430;SDS011;10876;49.038;10.608;2023-04-03T09:48:55;3.65;;;2.03;;
21430;SDS011;10876;49.038;10.608;2023-04-03T09:51:27;3.13;;;2.13;;
21430;SDS011;10876;49.038;10.608;2023-04-03T09:53:54;3.22;;;2.08;;
21430;SDS011;10876;49.038;10.608;2023-04-03T09:56:24;2.75;;;2.00;;
21430;SDS011;10876;49.038;10.608;2023-04-03T09:59:01;4.15;;;1.70;;
21430;SDS011;10876;49.038;10.608;2023-04-03T10:01:36;3.75;;;2.10;;
21430;SDS011;10876;49.038;10.608;2023-04-03T10:04:05;5.22;;;2.10;;
21430;SDS011;10876;49.038;10.608;2023-04-03T10:06:37;4.82;;;2.20;;
21430;SDS011;10876;49.038;10.608;2023-04-03T10:09:15;2.70;;;1.90;;
21430;SDS011;10876;49.038;10.608;2023-04-03T10:11:59;3.08;;;2.10;;
21430;SDS011;10876;49.038;10.608;2023-04-03T10:14:30;2.97;;;2.10;;
21430;SDS011;10876;49.038;10.608;2023-04-03T10:17:01;2.75;;;2.00;;
21430;SDS011;10876;49.038;10.608;2023-04-03T10:19:38;2.88;;;1.83;;
21430;SDS011;10876;49.038;10.608;2023-04-03T10:22:13;2.72;;;1.83;;
21430;SDS011;10876;49.038;10.608;2023-04-03T10:24:54;2.20;;;1.63;;
21430;SDS011;10876;49.038;10.608;2023-04-03T10:27:46;2.00;;;1.80;;
21430;SDS011;10876;49.038;10.608;2023-04-03T10:30:20;2.10;;;1.60;;
21430;SDS011;10876;49.038;10.608;2023-04-03T10:33:00;2.05;;;1.85;;
21430;SDS011;10876;49.038;10.608;2023-04-03T10:35:41;2.03;;;1.67;;
21430;SDS011;10876;49.038;10.608;2023-04-03T10:38:18;3.47;;;1.90;;
21430;SDS011;10876;49.038;10.608;2023-04-03T10:40:52;3.75;;;1.70;;
21430;SDS011;10876;49.038;10.608;2023-04-03T10:43:29;2.60;;;1.80;;
21430;SDS011;10876;49.038;10.608;2023-04-03T10:46:04;3.45;;;1.80;;
21430;SDS011;10876;49.038;10.608;2023-04-03T10:48:43;2.67;;;1.90;;
21430;SDS011;10876;49.038;10.608;2023-04-03T10:51:56;2.38;;;1.77;;
21430;SDS011;10876;49.038;10.608;2023-04-03T10:54:31;4.25;;;1.60;;
21430;SDS011;10876;49.038;10.608;2023-04-03T10:57:06;3.90;;;1.80;;
21430;SDS011;10876;49.038;10.608;2023-04-03T10:59:36;2.95;;;1.90;;
21430;SDS011;10876;49.038;10.608;2023-04-03T11:02:07;2.78;;;1.88;;
21430;SDS011;10876;49.038;10.608;2023-04-03T11:07:51;2.95;;;2.05;;
21430;SDS011;10876;49.038;10.608;2023-04-03T11:10:21;3.78;;;1.80;;
21430;SDS011;10876;49.038;10.608;2023-04-03T11:13:07;2.05;;;1.60;;
21430;SDS011;10876;49.038;10.608;2023-04-03T11:15:40;2.17;;;1.80;;
21430;SDS011;10876;49.038;10.608;2023-04-03T11:18:10;2.22;;;1.88;;
21430;SDS011;10876;49.038;10.608;2023-04-03T11:20:44;3.10;;;1.80;;
21430;SDS011;10876;49.038;10.608;2023-04-03T11:23:19;3.15;;;1.80;;
21430;SDS011;10876;49.038;10.608;2023-04-03T11:25:50;1.95;;;1.70;;
21430;SDS011;10876;49.038;10.608;2023-04-03T11:28:20;2.38;;;1.60;;
21430;SDS011;10876;49.038;10.608;2023-04-03T11:30:48;3.42;;;1.77;;
21430;SDS011;10876;49.038;10.608;2023-04-03T11:33:36;2.80;;;1.95;;
21430;SDS011;10876;49.038;10.608;2023-04-03T11:36:24;2.83;;;1.70;;
21430;SDS011;10876;49.038;10.608;2023-04-03T11:38:55;3.13;;;1.60;;
21430;SDS011;10876;49.038;10.608;2023-04-03T11:41:27;2.67;;;1.70;;
21430;SDS011;10876;49.038;10.608;2023-04-03T11:43:58;2.83;;;1.88;;
21430;SDS011;10876;49.038;10.608;2023-04-03T11:58:18;1.95;;;1.75;;
21430;SDS011;10876;49.038;10.608;2023-04-03T12:00:51;3.13;;;2.00;;
21430;SDS011;10876;49.038;10.608;2023-04-03T12:12:44;5.35;;;1.77;;
21430;SDS011;10876;49.038;10.608;2023-04-03T12:21:11;3.65;;;1.80;;
21430;SDS011;10876;49.038;10.608;2023-04-03T12:23:56;4.78;;;1.75;;
21430;SDS011;10876;49.038;10.608;2023-04-03T12:26:26;2.50;;;1.40;;
21430;SDS011;10876;49.038;10.608;2023-04-03T12:28:58;3.47;;;1.60;;
21430;SDS011;10876;49.038;10.608;2023-04-03T12:31:25;4.07;;;2.08;;
21430;SDS011;10876;49.038;10.608;2023-04-03T12:34:11;4.43;;;1.58;;
21430;SDS011;10876;49.038;10.608;2023-04-03T12:36:55;5.05;;;1.55;;
21430;SDS011;10876;49.038;10.608;2023-04-03T12:39:40;1.98;;;1.42;;
21430;SDS011;10876;49.038;10.608;2023-04-03T12:42:22;3.50;;;1.50;;
21430;SDS011;10876;49.038;10.608;2023-04-03T12:45:01;3.47;;;1.67;;
21430;SDS011;10876;49.038;10.608;2023-04-03T12:47:37;3.17;;;1.60;;
21430;SDS011;10876;49.038;10.608;2023-04-03T12:50:16;2.88;;;1.60;;
21430;SDS011;10876;49.038;10.608;2023-04-03T12:52:50;1.60;;;1.50;;
21430;SDS011;10876;49.038;10.608;2023-04-03T12:55:21;4.25;;;1.50;;
21430;SDS011;10876;49.038;10.608;2023-04-03T12:57:48;3.08;;;1.92;;
21430;SDS011;10876;49.038;10.608;2023-04-03T13:00:28;5.32;;;1.52;;
21430;SDS011;10876;49.038;10.608;2023-04-03T13:02:58;2.03;;;1.30;;
21430;SDS011;10876;49.038;10.608;2023-04-03T13:05:26;2.55;;;1.45;;
21430;SDS011;10876;49.038;10.608;2023-04-03T13:07:56;1.88;;;1.42;;
21430;SDS011;10876;49.038;10.608;2023-04-03T13:10:27;4.60;;;1.77;;
21430;SDS011;10876;49.038;10.608;2023-04-03T13:12:54;2.30;;;1.55;;
21430;SDS011;10876;49.038;10.608;2023-04-03T13:15:25;1.77;;;1.33;;
21430;SDS011;10876;49.038;10.608;2023-04-03T13:17:56;3.10;;;1.90;;
21430;SDS011;10876;49.038;10.608;2023-04-03T13:20:24;2.55;;;1.60;;
21430;SDS011;10876;49.038;10.608;2023-04-03T13:22:54;1.88;;;1.55;;
21430;SDS011;10876;49.038;10.608;2023-04-03T13:25:26;4.05;;;1.80;;
21430;SDS011;10876;49.038;10.608;2023-04-03T13:27:57;3.75;;;1.75;;
21430;SDS011;10876;49.038;10.608;2023-04-03T13:30:29;4.03;;;1.80;;
21430;SDS011;10876;49.038;10.608;2023-04-03T13:33:02;4.40;;;2.05;;
21430;SDS011;10876;49.038;10.608;2023-04-03T13:35:32;2.85;;;1.70;;
21430;SDS011;10876;49.038;10.608;2023-04-03T13:38:02;2.80;;;1.50;;
21430;SDS011;10876;49.038;10.608;2023-04-03T13:40:32;1.67;;;1.58;;
21430;SDS011;10876;49.038;10.608;2023-04-03T13:43:03;2.70;;;1.40;;
21430;SDS011;10876;49.038;10.608;2023-04-03T13:45:36;2.15;;;1.90;;
21430;SDS011;10876;49.038;10.608;2023-04-03T13:48:08;2.08;;;1.70;;
21430;SDS011;10876;49.038;10.608;2023-04-03T13:50:52;2.35;;;1.67;;
21430;SDS011;10876;49.038;10.608;2023-04-03T13:53:23;4.22;;;1.50;;
21430;SDS011;10876;49.038;10.608;2023-04-03T13:55:53;2.63;;;1.95;;
21430;SDS011;10876;49.038;10.608;2023-04-03T13:58:23;4.20;;;1.55;;
21430;SDS011;10876;49.038;10.608;2023-04-03T14:00:56;1.50;;;1.40;;
21430;SDS011;10876;49.038;10.608;2023-04-03T14:03:29;1.83;;;1.40;;
21430;SDS011;10876;49.038;10.608;2023-04-03T14:05:59;2.42;;;1.40;;
21430;SDS011;10876;49.038;10.608;2023-04-03T14:08:31;2.78;;;1.60;;
21430;SDS011;10876;49.038;10.608;2023-04-03T14:10:58;2.83;;;1.55;;
21430;SDS011;10876;49.038;10.608;2023-04-03T14:13:25;3.20;;;1.55;;
21430;SDS011;10876;49.038;10.608;2023-04-03T14:15:56;3.00;;;1.70;;
21430;SDS011;10876;49.038;10.608;2023-04-03T14:18:26;2.17;;;1.42;;
21430;SDS011;10876;49.038;10.608;2023-04-03T14:20:54;1.60;;;1.38;;
21430;SDS011;10876;49.038;10.608;2023-04-03T14:23:21;3.85;;;1.63;;
21430;SDS011;10876;49.038;10.608;2023-04-03T14:25:50;2.05;;;1.30;;
21430;SDS011;10876;49.038;10.608;2023-04-03T14:28:19;2.72;;;1.70;;
21430;SDS011;10876;49.038;10.608;2023-04-03T14:30:49;1.67;;;1.30;;
21430;SDS011;10876;49.038;10.608;2023-04-03T14:33:21;2.60;;;1.52;;
21430;SDS011;10876;49.038;10.608;2023-04-03T14:35:48;2.05;;;1.58;;
21430;SDS011;10876;49.038;10.608;2023-04-03T14:38:21;2.10;;;1.63;;
21430;SDS011;10876;49.038;10.608;2023-04-03T14:44:10;2.60;;;1.70;;
21430;SDS011;10876;49.038;10.608;2023-04-03T14:46:41;2.40;;;1.88;;
21430;SDS011;10876;49.038;10.608;2023-04-03T14:49:13;1.67;;;1.10;;
21430;SDS011;10876;49.038;10.608;2023-04-03T14:51:42;1.33;;;1.20;;
21430;SDS011;10876;49.038;10.608;2023-04-03T14:54:11;2.60;;;1.80;;
21430;SDS011;10876;49.038;10.608;2023-04-03T14:56:40;2.30;;;1.70;;
21430;SDS011;10876;49.038;10.608;2023-04-03T14:59:08;2.58;;;1.80;;
21430;SDS011;10876;49.038;10.608;2023-04-03T15:01:37;2.97;;;1.65;;
21430;SDS011;10876;49.038;10.608;2023-04-03T15:04:05;2.78;;;1.85;;
21430;SDS011;10876;49.038;10.608;2023-04-03T15:06:38;2.60;;;1.77;;
21430;SDS011;10876;49.038;10.608;2023-04-03T15:09:05;5.18;;;1.52;;
21430;SDS011;10876;49.038;10.608;2023-04-03T15:11:39;3.28;;;2.05;;
21430;SDS011;10876;49.038;10.608;2023-04-03T15:14:07;2.85;;;1.73;;
21430;SDS011;10876;49.038;10.608;2023-04-03T15:16:35;3.58;;;2.00;;
21430;SDS011;10876;49.038;10.608;2023-04-03T15:19:02;2.45;;;1.88;;
21430;SDS011;10876;49.038;10.608;2023-04-03T15:21:29;2.83;;;1.80;;
21430;SDS011;10876;49.038;10.608;2023-04-03T15:23:58;4.82;;;1.73;;
21430;SDS011;10876;49.038;10.608;2023-04-03T15:26:25;4.22;;;1.90;;
21430;SDS011;10876;49.038;10.608;2023-04-03T15:28:52;2.22;;;1.63;;
21430;SDS011;10876;49.038;10.608;2023-04-03T15:31:19;3.28;;;1.50;;
21430;SDS011;10876;49.038;10.608;2023-04-03T15:33:45;3.75;;;1.77;;
21430;SDS011;10876;49.038;10.608;2023-04-03T15:36:12;3.47;;;1.38;;
21430;SDS011;10876;49.038;10.608;2023-04-03T15:38:40;2.10;;;1.33;;
21430;SDS011;10876;49.038;10.608;2023-04-03T15:41:08;2.00;;;1.33;;
21430;SDS011;10876;49.038;10.608;2023-04-03T15:43:35;2.63;;;1.50;;